KRMN

Stafford Regional Airport

Stafford, Virginia, USA
METAR KRMN 191655Z AUTO 35006KT 10SM SCT035 27/20 A3000 RMK AO2 T02710199
Observed Flight Rules
Aug-19 @ 16:55 UTC (18 minutes ago) Visual Flight Rules
Wind Visibility Clouds
350° at 6 knots 10 miles
  • Scattered at 3,500' AGL
Temperatures Readings
Current 27°C / 81°F
Dewpoint 20°C / 68°F
Humidity 66%
Altimeter 30" Hg
Pressure 1016 hPa
Elevation 65
METAR KRMN 191655Z AUTO 35006KT 10SM SCT035 27/20 A3000 RMK AO2 T02710199
Observed Flight Rules
Aug-19 @ 16:55 UTC
(18 minutes ago)
VFR
Wind Visibility
350° at 6 knots 10 miles
Clouds
  • Scattered at 3,500' AGL
Temperature Dewpoint
27°C / 81°F 20°C / 68°F
Humidity Altimeter Pressure
66% 30" Hg 1016 hPa